createdAt,value
2023-03-26T04:41:38.710Z,19.92
2023-03-26T04:42:46.269Z,18.63
2023-03-26T04:43:50.583Z,21.70
2023-03-26T04:44:52.810Z,15.77
2023-03-26T04:45:56.521Z,17.63
2023-03-26T04:46:58.971Z,17.25
2023-03-26T04:48:02.384Z,17.23
2023-03-26T04:49:04.881Z,20.25
2023-03-26T04:50:09.700Z,19.25
2023-03-26T04:51:18.030Z,20.80
2023-03-26T04:52:20.278Z,18.70
2023-03-26T04:53:22.727Z,19.60
2023-03-26T04:54:24.845Z,23.63
2023-03-26T04:55:33.192Z,21.80
2023-03-26T04:56:43.471Z,20.40
2023-03-26T04:57:49.648Z,20.10
2023-03-26T04:58:51.915Z,20.42
2023-03-26T04:59:54.062Z,19.88
2023-03-26T05:01:01.171Z,23.25
2023-03-26T05:02:13.140Z,21.02
2023-03-26T05:03:15.637Z,14.57
2023-03-26T05:04:17.863Z,20.23
2023-03-26T05:05:20.366Z,22.83
2023-03-26T05:06:22.548Z,26.13
2023-03-26T05:07:24.669Z,23.55
2023-03-26T05:08:28.837Z,18.65
2023-03-26T05:09:31.385Z,27.50
2023-03-26T05:10:33.597Z,34.13
2023-03-26T05:11:35.678Z,26.55
2023-03-26T05:12:37.796Z,26.83
2023-03-26T05:13:42.866Z,20.83
2023-03-26T05:14:45.096Z,16.45
2023-03-26T05:15:47.265Z,27.27
2023-03-26T05:16:53.353Z,19.38
2023-03-26T05:17:56.109Z,16.73
2023-03-26T05:18:58.587Z,26.27
2023-03-26T05:20:00.870Z,18.15
2023-03-26T05:21:03.734Z,17.63
2023-03-26T05:22:06.205Z,17.13
2023-03-26T05:23:08.329Z,18.25
2023-03-26T05:24:10.643Z,19.75
2023-03-26T05:25:13.088Z,18.75
2023-03-26T05:26:15.654Z,17.55
2023-03-26T05:27:20.201Z,17.13
2023-03-26T05:28:24.693Z,12.80
2023-03-26T05:29:27.174Z,17.52
2023-03-26T05:30:31.183Z,18.25
2023-03-26T05:31:33.394Z,14.13
2023-03-26T05:32:38.196Z,15.80
2023-03-26T05:33:40.456Z,17.10
2023-03-26T05:34:42.632Z,15.13
2023-03-26T05:35:44.852Z,15.77
2023-03-26T05:36:47.103Z,16.95
2023-03-26T05:37:51.516Z,15.45
2023-03-26T05:38:53.677Z,18.73
2023-03-26T05:39:55.860Z,16.25
2023-03-26T05:40:59.662Z,14.63
2023-03-26T05:42:02.032Z,12.15
2023-03-26T05:43:04.516Z,18.63
2023-03-26T05:44:06.716Z,20.90
2023-03-26T05:45:11.247Z,14.90
2023-03-26T05:46:13.829Z,15.43
2023-03-26T05:47:16.179Z,12.00
2023-03-26T05:48:20.936Z,12.65
2023-03-26T05:49:23.071Z,11.18
2023-03-26T05:50:25.511Z,14.45
2023-03-26T05:51:27.612Z,15.27
2023-03-26T05:52:29.760Z,12.00
2023-03-26T05:53:32.320Z,15.07
2023-03-26T05:54:34.483Z,13.27
2023-03-26T05:55:36.564Z,13.90
2023-03-26T05:56:38.733Z,14.10
2023-03-26T05:57:41.999Z,12.73
2023-03-26T05:58:44.153Z,11.15
2023-03-26T05:59:46.240Z,13.73
2023-03-26T06:00:48.914Z,17.02
2023-03-26T06:01:51.142Z,18.52
2023-03-26T06:02:56.563Z,12.55
2023-03-26T06:04:00.944Z,14.93
2023-03-26T06:05:05.705Z,12.68
2023-03-26T06:06:09.196Z,12.32
2023-03-26T06:07:11.548Z,11.15
2023-03-26T06:08:13.742Z,13.90
2023-03-26T06:09:17.009Z,10.32
2023-03-26T06:10:19.364Z,12.57
2023-03-26T06:11:21.874Z,13.80
2023-03-26T06:12:23.944Z,12.05
2023-03-26T06:13:26.179Z,14.98
2023-03-26T06:14:28.400Z,10.95
2023-03-26T06:15:30.695Z,12.00
2023-03-26T06:16:35.284Z,13.52
2023-03-26T06:17:37.699Z,13.35
2023-03-26T06:18:40.318Z,14.55
2023-03-26T06:19:43.948Z,12.10
2023-03-26T06:20:46.119Z,13.43
2023-03-26T06:21:48.522Z,13.07
2023-03-26T06:22:50.941Z,15.57
2023-03-26T06:23:53.456Z,12.88
2023-03-26T06:24:56.281Z,13.52
2023-03-26T06:25:58.811Z,12.50
2023-03-26T06:27:01.068Z,14.63
2023-03-26T06:28:03.195Z,13.15
2023-03-26T06:29:06.037Z,13.13
2023-03-26T06:30:09.423Z,15.45
2023-03-26T06:31:12.091Z,13.73
2023-03-26T06:32:20.042Z,13.20
2023-03-26T06:33:24.512Z,14.05
2023-03-26T06:34:27.075Z,14.20
2023-03-26T06:35:30.889Z,11.13
2023-03-26T06:36:33.187Z,11.45
2023-03-26T06:37:35.436Z,15.50
2023-03-26T06:38:37.734Z,15.32
2023-03-26T06:39:39.999Z,10.75
2023-03-26T06:40:42.367Z,11.18
2023-03-26T06:41:44.444Z,16.08
2023-03-26T06:43:08.737Z,12.90
2023-03-26T06:44:08.930Z,14.43
2023-03-26T06:45:11.416Z,10.90
2023-03-26T06:46:14.057Z,11.88
2023-03-26T06:47:16.258Z,14.57
2023-03-26T06:48:18.507Z,14.27
2023-03-26T06:49:21.031Z,10.93
2023-03-26T06:50:23.415Z,15.57
2023-03-26T06:51:27.064Z,16.98
2023-03-26T06:52:31.475Z,12.82
2023-03-26T06:53:33.666Z,14.15
2023-03-26T06:54:35.857Z,14.05
2023-03-26T06:55:38.819Z,12.75
2023-03-26T06:56:41.226Z,12.30
2023-03-26T06:57:45.333Z,10.65
2023-03-26T06:58:47.513Z,15.77
2023-03-26T06:59:49.649Z,12.15
2023-03-26T07:00:54.514Z,12.95
2023-03-26T07:01:56.954Z,14.27
2023-03-26T07:02:59.092Z,13.55
2023-03-26T07:04:01.441Z,14.40
2023-03-26T07:05:04.248Z,14.15
2023-03-26T07:06:07.133Z,13.20
2023-03-26T07:07:13.434Z,9.27
2023-03-26T07:08:17.831Z,11.70
2023-03-26T07:09:20.043Z,10.43
2023-03-26T07:10:22.236Z,10.85
2023-03-26T07:11:27.064Z,10.63
2023-03-26T07:12:31.620Z,11.50
2023-03-26T07:13:33.974Z,10.40
2023-03-26T07:14:39.129Z,13.10
2023-03-26T07:15:41.388Z,14.05
2023-03-26T07:16:43.562Z,10.07
2023-03-26T07:17:45.932Z,11.20
2023-03-26T07:18:48.399Z,13.02
2023-03-26T07:19:52.836Z,12.43
2023-03-26T07:20:55.969Z,11.60
2023-03-26T07:21:58.958Z,13.35
2023-03-26T07:23:02.928Z,18.80
2023-03-26T07:24:06.077Z,12.77
2023-03-26T07:25:10.021Z,12.70
2023-03-26T07:26:27.200Z,13.73
2023-03-26T07:27:37.588Z,11.60
2023-03-26T07:29:04.650Z,11.88
2023-03-26T07:30:12.432Z,10.35
2023-03-26T07:31:27.303Z,15.05
2023-03-26T07:32:36.581Z,10.98
2023-03-26T07:33:46.932Z,11.23
2023-03-26T07:34:55.159Z,11.63
2023-03-26T07:36:09.285Z,16.13
2023-03-26T07:37:26.923Z,8.43
2023-03-26T07:38:44.157Z,9.63
2023-03-26T07:39:54.942Z,11.60
2023-03-26T07:41:05.816Z,16.55
2023-03-26T07:42:23.466Z,14.10
2023-03-26T07:43:37.567Z,14.73
2023-03-26T07:44:51.463Z,14.30
2023-03-26T07:45:54.980Z,12.25
2023-03-26T07:46:59.668Z,13.95
2023-03-26T07:48:04.552Z,11.20
2023-03-26T07:49:09.753Z,11.00
2023-03-26T07:50:19.072Z,11.43
2023-03-26T07:51:21.889Z,13.98
2023-03-26T07:52:24.877Z,14.73
2023-03-26T07:53:27.282Z,12.85
2023-03-26T07:54:31.355Z,11.77
2023-03-26T07:55:36.299Z,13.80
2023-03-26T07:56:42.256Z,11.82
2023-03-26T07:57:54.954Z,14.63
2023-03-26T07:59:06.713Z,11.48
2023-03-26T08:00:15.271Z,9.88
2023-03-26T08:01:24.927Z,12.05
2023-03-26T08:02:42.165Z,9.07
2023-03-26T08:04:23.758Z,12.07
2023-03-26T08:05:32.491Z,8.15
2023-03-26T08:06:36.570Z,9.27
2023-03-26T08:07:53.339Z,9.40
2023-03-26T08:09:02.519Z,9.63
2023-03-26T08:10:12.428Z,9.82
2023-03-26T08:11:28.477Z,8.07
2023-03-26T08:12:39.071Z,10.40
2023-03-26T08:13:54.349Z,8.10
2023-03-26T08:15:08.101Z,7.28
2023-03-26T08:16:17.131Z,9.80
2023-03-26T08:17:26.230Z,8.90
2023-03-26T08:18:41.300Z,11.25
2023-03-26T08:20:06.021Z,10.93
2023-03-26T08:21:14.095Z,7.88
2023-03-26T08:22:26.279Z,8.32
2023-03-26T08:23:35.753Z,6.68
2023-03-26T08:25:08.149Z,8.00
2023-03-26T08:26:17.797Z,8.77
2023-03-26T08:27:25.430Z,9.15
2023-03-26T08:28:37.948Z,8.65
2023-03-26T08:29:50.001Z,7.55
2023-03-26T08:30:55.220Z,9.18
2023-03-26T08:31:58.032Z,10.68
2023-03-26T08:33:04.991Z,11.70
2023-03-26T08:34:11.103Z,9.20
2023-03-26T08:35:14.112Z,12.00
2023-03-26T08:36:16.213Z,12.93
2023-03-26T08:37:18.414Z,11.77
2023-03-26T08:38:21.027Z,11.02
2023-03-26T08:39:25.686Z,12.32
2023-03-26T08:41:06.580Z,9.63
2023-03-26T08:42:56.758Z,9.40
2023-03-26T08:44:47.850Z,7.43
2023-03-26T08:46:15.947Z,7.97
2023-03-26T08:47:55.767Z,7.80
2023-03-26T08:49:24.894Z,8.30
2023-03-26T08:50:54.681Z,5.00
2023-03-26T08:52:31.336Z,8.10
2023-03-26T08:54:03.523Z,8.82
2023-03-26T08:55:38.253Z,6.07
2023-03-26T08:56:51.578Z,5.28
2023-03-26T08:58:34.980Z,3.13
2023-03-26T09:00:06.708Z,4.47
2023-03-26T09:02:52.700Z,5.32
2023-03-26T09:04:24.706Z,8.35
2023-03-26T09:06:05.233Z,8.48
2023-03-26T09:07:47.172Z,6.72
2023-03-26T09:09:38.195Z,4.10
2023-03-26T09:10:51.771Z,5.20
2023-03-26T09:12:27.549Z,4.60
2023-03-26T09:14:05.270Z,5.38
2023-03-26T09:15:33.947Z,3.95
2023-03-26T09:16:57.277Z,5.90
2023-03-26T09:18:22.236Z,5.18
2023-03-26T09:19:59.495Z,5.03
2023-03-26T09:21:26.317Z,3.95
2023-03-26T09:23:14.982Z,4.95
2023-03-26T09:24:54.121Z,8.10
2023-03-26T09:26:32.794Z,4.88
2023-03-26T09:27:38.419Z,7.45
2023-03-26T09:29:32.984Z,5.35
2023-03-26T09:31:00.263Z,4.35
2023-03-26T09:32:47.175Z,5.20
2023-03-26T09:33:59.438Z,4.35
2023-03-26T09:35:26.019Z,4.32
2023-03-26T09:36:54.529Z,3.80
2023-03-26T09:38:02.789Z,5.95
2023-03-26T09:39:16.539Z,3.78
2023-03-26T09:40:22.584Z,3.42
2023-03-26T09:41:38.208Z,5.40
2023-03-26T09:42:45.781Z,3.63
2023-03-26T09:44:14.897Z,2.90
2023-03-26T09:45:32.085Z,4.82
2023-03-26T09:46:44.482Z,4.80
2023-03-26T09:48:05.646Z,5.07
2023-03-26T09:49:30.371Z,6.25
2023-03-26T09:50:48.923Z,3.78
2023-03-26T09:52:20.263Z,3.97
2023-03-26T09:53:59.456Z,4.13
2023-03-26T09:55:42.835Z,3.20
2023-03-26T09:56:53.730Z,4.85
2023-03-26T09:58:28.351Z,5.50
2023-03-26T09:59:54.662Z,3.25
2023-03-26T10:01:05.875Z,5.43
2023-03-26T10:02:46.348Z,6.38
2023-03-26T10:04:00.987Z,6.72
2023-03-26T10:05:22.906Z,14.57
2023-03-26T10:06:37.332Z,5.13
2023-03-26T10:07:52.132Z,4.88
2023-03-26T10:09:20.869Z,3.65
2023-03-26T10:10:31.853Z,3.28
2023-03-26T10:12:00.748Z,3.38
2023-03-26T10:13:14.876Z,2.92
2023-03-26T10:14:22.921Z,3.67
2023-03-26T10:15:41.270Z,2.53
2023-03-26T10:16:56.123Z,4.55
2023-03-26T10:18:26.735Z,3.92
2023-03-26T10:20:56.753Z,5.93
2023-03-26T10:22:06.342Z,10.10
2023-03-26T10:23:21.586Z,6.57
2023-03-26T10:24:36.603Z,6.50
2023-03-26T10:26:00.140Z,4.60
2023-03-26T10:27:14.330Z,7.35
2023-03-26T10:28:37.575Z,6.72
2023-03-26T10:30:15.436Z,7.15
2023-03-26T10:31:35.542Z,5.18
2023-03-26T10:32:47.040Z,4.05
2023-03-26T10:34:00.527Z,4.30
2023-03-26T10:35:12.685Z,2.30
2023-03-26T10:36:33.796Z,2.30
2023-03-26T10:37:54.682Z,2.92
2023-03-26T10:39:36.183Z,2.05
2023-03-26T10:41:01.486Z,1.45
2023-03-26T10:42:40.420Z,3.92
2023-03-26T10:49:16.912Z,4.47
2023-03-26T10:50:57.839Z,5.10
2023-03-26T10:52:07.017Z,2.57
2023-03-26T10:53:18.977Z,4.57
2023-03-26T10:54:35.503Z,4.57
2023-03-26T10:55:39.377Z,4.40
2023-03-26T10:56:45.970Z,6.93
2023-03-26T10:57:52.731Z,2.78
2023-03-26T10:58:56.915Z,1.10
2023-03-26T11:00:06.170Z,1.35
2023-03-26T11:01:16.326Z,4.93
2023-03-26T11:02:30.631Z,1.65
2023-03-26T11:03:52.038Z,1.50
2023-03-26T11:05:09.700Z,1.42
2023-03-26T11:06:31.368Z,2.45
2023-03-26T11:07:40.771Z,2.28
2023-03-26T11:08:48.595Z,1.52
2023-03-26T11:09:57.435Z,1.25
2023-03-26T11:11:09.279Z,4.00
2023-03-26T11:12:26.584Z,2.25
2023-03-26T11:13:43.485Z,0.93
2023-03-26T11:14:56.427Z,5.55
2023-03-26T11:16:03.230Z,2.63
2023-03-26T11:17:39.138Z,3.35
2023-03-26T11:18:45.352Z,2.25
2023-03-26T11:19:53.191Z,0.10
2023-03-26T11:21:18.819Z,2.00
2023-03-26T11:22:33.064Z,2.55
2023-03-26T11:23:40.320Z,2.85
2023-03-26T11:25:06.659Z,4.32
2023-03-26T11:26:14.052Z,1.48
2023-03-26T11:27:26.446Z,4.38
2023-03-26T11:29:03.503Z,3.33
2023-03-26T11:30:17.254Z,3.85
2023-03-26T11:31:27.678Z,3.38
2023-03-26T11:32:39.238Z,3.60
2023-03-26T11:33:47.731Z,1.70
2023-03-26T11:34:58.471Z,2.65
2023-03-26T11:36:06.113Z,2.92
2023-03-26T11:37:17.629Z,1.55
2023-03-26T11:38:24.703Z,1.25
2023-03-26T11:39:31.334Z,0.40
2023-03-26T11:40:37.227Z,0.40
2023-03-26T11:41:39.763Z,0.65
2023-03-26T11:42:43.562Z,1.55
2023-03-26T11:43:50.413Z,2.03
2023-03-26T11:44:56.076Z,1.63
2023-03-26T11:45:58.841Z,1.02
2023-03-26T11:47:05.299Z,1.00
2023-03-26T11:48:12.813Z,1.60
2023-03-26T11:49:18.661Z,1.50
2023-03-26T11:50:25.233Z,1.20
2023-03-26T11:51:32.773Z,2.92
2023-03-26T11:52:34.895Z,2.55
2023-03-26T11:53:38.811Z,1.85
2023-03-26T11:54:43.476Z,2.42
2023-03-26T11:55:50.388Z,1.55
2023-03-26T11:57:04.793Z,1.55
2023-03-26T11:58:25.469Z,1.25
2023-03-26T11:59:31.311Z,5.28
2023-03-26T12:00:35.991Z,1.70
2023-03-26T12:01:44.414Z,2.08
2023-03-26T12:02:48.260Z,3.10
2023-03-26T12:04:05.370Z,1.50
2023-03-26T12:05:20.347Z,2.25
2023-03-26T12:06:25.745Z,2.67
2023-03-26T12:07:32.644Z,2.60
2023-03-26T12:08:39.419Z,3.83
2023-03-26T12:09:52.077Z,2.58
2023-03-26T12:11:03.789Z,2.53
2023-03-26T12:12:06.852Z,3.35
2023-03-26T12:13:28.256Z,3.33
2023-03-26T12:14:34.062Z,2.92
2023-03-26T12:15:43.925Z,5.32
2023-03-26T12:17:00.756Z,2.40
2023-03-26T12:18:19.931Z,2.92
2023-03-26T12:19:24.355Z,2.70
2023-03-26T12:20:36.769Z,2.83
2023-03-26T12:21:46.227Z,4.88
2023-03-26T12:22:48.604Z,4.47
2023-03-26T12:24:00.066Z,2.58
2023-03-26T12:25:19.128Z,4.93
2023-03-26T12:26:31.741Z,3.78
2023-03-26T12:27:33.981Z,3.70
2023-03-26T12:28:36.171Z,2.72
2023-03-26T12:29:38.330Z,3.03
2023-03-26T12:30:42.373Z,2.42
2023-03-26T12:31:52.121Z,1.90
2023-03-26T12:32:58.176Z,1.88
2023-03-26T12:34:13.532Z,3.53
2023-03-26T12:35:26.731Z,2.90
2023-03-26T12:36:33.559Z,5.32
2023-03-26T12:37:37.522Z,2.40
2023-03-26T12:38:40.741Z,2.75
2023-03-26T12:40:09.489Z,1.45
2023-03-26T12:44:43.119Z,3.83
2023-03-26T12:44:47.593Z,2.13
2023-03-26T12:44:54.972Z,2.72
2023-03-26T12:45:20.139Z,3.50
2023-03-26T12:47:56.294Z,2.20
2023-03-26T12:48:00.905Z,2.90
2023-03-26T12:49:07.043Z,3.47
2023-03-26T12:50:15.560Z,3.63
2023-03-26T12:51:31.724Z,2.70
2023-03-26T12:52:47.484Z,5.70
2023-03-26T12:54:07.112Z,4.88
2023-03-26T12:55:24.152Z,5.10
2023-03-26T12:56:42.032Z,1.48
2023-03-26T12:57:52.951Z,5.55
2023-03-26T12:59:18.483Z,8.75
2023-03-26T13:00:28.915Z,9.30
2023-03-26T13:01:40.838Z,4.93
2023-03-26T13:02:58.951Z,8.00
2023-03-26T13:04:10.874Z,8.40
2023-03-26T13:05:30.372Z,2.28
2023-03-26T13:06:59.810Z,6.97
2023-03-26T13:08:39.527Z,2.07
2023-03-26T13:10:10.558Z,7.10
2023-03-26T13:11:18.575Z,1.63
2023-03-26T13:12:40.919Z,1.35
2023-03-26T13:14:04.862Z,2.75
2023-03-26T13:15:22.649Z,2.65
2023-03-26T13:16:31.045Z,6.80
2023-03-26T13:17:39.674Z,5.03
2023-03-26T13:18:50.752Z,3.22
2023-03-26T13:20:01.204Z,2.72
2023-03-26T13:21:09.980Z,3.40
2023-03-26T13:22:22.412Z,2.35
2023-03-26T13:23:33.483Z,1.52
2023-03-26T13:25:54.493Z,2.60
2023-03-26T13:27:06.265Z,2.05
2023-03-26T13:28:21.628Z,3.33
2023-03-26T13:29:31.394Z,2.15
2023-03-26T13:30:41.559Z,1.92
2023-03-26T13:31:49.996Z,6.20
2023-03-26T13:33:06.844Z,4.32
2023-03-26T13:34:18.722Z,4.95
2023-03-26T13:35:30.083Z,3.50
2023-03-26T13:36:46.573Z,2.33
2023-03-26T13:37:55.555Z,3.80
2023-03-26T13:39:09.481Z,1.73
2023-03-26T13:40:24.885Z,3.25
2023-03-26T13:41:38.187Z,1.30
2023-03-26T13:42:51.086Z,1.90
2023-03-26T13:44:06.204Z,1.55
2023-03-26T13:45:24.177Z,2.63
2023-03-26T13:46:32.258Z,3.83
2023-03-26T13:47:37.771Z,3.33
2023-03-26T13:48:47.443Z,2.13
2023-03-26T13:49:53.884Z,3.80
2023-03-26T13:51:01.886Z,3.00
2023-03-26T13:52:08.283Z,4.28
2023-03-26T13:53:17.876Z,3.58
2023-03-26T13:54:26.147Z,8.65
2023-03-26T13:55:32.437Z,4.10
2023-03-26T13:56:38.846Z,2.22
2023-03-26T13:57:46.256Z,1.90
2023-03-26T13:58:52.475Z,5.15
2023-03-26T14:00:00.580Z,3.42
2023-03-26T14:01:09.775Z,3.97
2023-03-26T14:02:18.223Z,0.90
2023-03-26T14:03:26.876Z,1.65
2023-03-26T14:04:33.249Z,3.13
2023-03-26T14:05:39.568Z,2.80
2023-03-26T14:06:47.192Z,7.38
2023-03-26T14:07:53.463Z,2.05
2023-03-26T14:09:02.818Z,3.60
2023-03-26T14:10:10.230Z,3.63
2023-03-26T14:11:17.898Z,1.90
2023-03-26T14:12:29.380Z,2.67
2023-03-26T14:13:36.431Z,1.65
2023-03-26T14:14:47.261Z,2.95
2023-03-26T14:15:57.345Z,10.23
2023-03-26T14:17:05.596Z,3.35
2023-03-26T14:18:31.424Z,2.03
2023-03-26T14:20:07.413Z,4.68
2023-03-26T14:21:35.890Z,2.03
2023-03-26T14:22:52.525Z,1.98
2023-03-26T14:24:13.264Z,5.10
2023-03-26T14:25:25.220Z,2.40
2023-03-26T14:26:53.629Z,2.35
2023-03-26T14:28:09.799Z,2.58
2023-03-26T14:29:29.818Z,2.72
2023-03-26T14:30:58.299Z,1.40
2023-03-26T14:32:24.602Z,2.42
2023-03-26T14:33:42.641Z,6.80
2023-03-26T14:35:01.043Z,9.32
2023-03-26T14:36:10.249Z,1.90
2023-03-26T14:37:31.398Z,1.65
2023-03-26T14:38:52.409Z,5.18
2023-03-26T14:40:28.078Z,3.45
2023-03-26T14:41:38.810Z,7.32
2023-03-26T14:42:44.529Z,5.43
2023-03-26T14:44:05.736Z,5.18
2023-03-26T14:45:44.974Z,5.93
2023-03-26T14:47:04.598Z,7.55
2023-03-26T14:48:37.562Z,5.53
2023-03-26T14:50:06.660Z,5.88
2023-03-26T14:51:21.589Z,9.60
2023-03-26T14:52:37.020Z,8.52
2023-03-26T14:53:44.340Z,6.13
2023-03-26T14:54:51.918Z,9.43
2023-03-26T14:56:31.282Z,9.48
2023-03-26T14:57:54.398Z,6.00
2023-03-26T14:59:26.014Z,5.60
2023-03-26T15:01:10.918Z,6.32
2023-03-26T15:03:03.875Z,6.13
2023-03-26T15:04:47.266Z,8.70
2023-03-26T15:06:25.447Z,7.10
2023-03-26T15:07:48.106Z,9.57
2023-03-26T15:09:29.693Z,13.45
2023-03-26T15:10:58.043Z,7.25
2023-03-26T15:12:12.795Z,7.63
2023-03-26T15:13:51.711Z,5.35
2023-03-26T15:15:26.695Z,6.38
2023-03-26T15:17:09.589Z,3.22
2023-03-26T15:18:43.586Z,6.13
2023-03-26T15:20:26.130Z,4.43
2023-03-26T15:22:05.222Z,6.05
2023-03-26T15:23:52.187Z,5.93
2023-03-26T15:25:29.560Z,7.22
2023-03-26T15:27:26.863Z,12.07
2023-03-26T15:29:01.105Z,9.45
2023-03-26T15:30:32.917Z,15.07
2023-03-26T15:32:11.090Z,23.80
2023-03-26T15:33:43.908Z,24.38
2023-03-26T15:35:25.769Z,8.77
2023-03-26T15:38:17.947Z,4.93
2023-03-26T15:39:59.737Z,5.45
2023-03-26T15:41:16.625Z,8.88
2023-03-26T15:42:28.296Z,9.05
2023-03-26T15:44:24.615Z,6.03
2023-03-26T15:45:33.672Z,4.15
2023-03-26T15:46:56.892Z,5.43
2023-03-26T15:48:23.058Z,12.07
2023-03-26T15:49:35.917Z,10.35
2023-03-26T15:50:51.586Z,7.07
2023-03-26T15:51:58.939Z,8.32
2023-03-26T15:53:15.000Z,7.18
2023-03-26T15:54:23.928Z,6.47
2023-03-26T15:55:34.292Z,6.78
2023-03-26T15:56:55.811Z,7.25
2023-03-26T15:58:05.604Z,4.75
2023-03-26T15:59:23.596Z,4.50
2023-03-26T16:00:29.126Z,8.43
2023-03-26T16:01:46.586Z,11.63
2023-03-26T16:03:09.897Z,7.63
2023-03-26T16:04:24.956Z,8.48
2023-03-26T16:05:37.332Z,7.97
2023-03-26T16:06:48.755Z,10.13
2023-03-26T16:08:03.015Z,59.95
2023-03-26T16:09:23.805Z,11.60
2023-03-26T16:10:33.854Z,8.60
2023-03-26T16:11:53.759Z,14.35
2023-03-26T16:13:23.423Z,9.52
2023-03-26T16:14:42.982Z,9.90
2023-03-26T16:15:53.322Z,9.30
2023-03-26T16:16:57.782Z,10.27
2023-03-26T16:18:31.949Z,10.18
2023-03-26T16:19:48.396Z,9.52
2023-03-26T16:20:54.280Z,8.40
2023-03-26T16:22:00.351Z,11.00
2023-03-26T16:23:06.256Z,9.50
2023-03-26T16:24:28.104Z,7.97
2023-03-26T16:25:33.303Z,9.27
2023-03-26T16:26:40.164Z,10.02
2023-03-26T16:27:43.136Z,8.02
2023-03-26T16:29:15.296Z,8.98
2023-03-26T16:30:31.596Z,11.18
2023-03-26T16:31:38.716Z,9.52
2023-03-26T16:32:42.178Z,8.50
2023-03-26T16:33:49.796Z,12.13
2023-03-26T16:34:55.408Z,7.03
2023-03-26T16:36:07.299Z,8.20
2023-03-26T16:37:36.354Z,10.80
2023-03-26T16:39:11.645Z,10.90
2023-03-26T16:40:34.450Z,8.57
2023-03-26T16:41:56.488Z,10.50
2023-03-26T16:43:51.897Z,6.82
2023-03-26T16:45:06.633Z,5.88
2023-03-26T16:46:17.091Z,8.50
2023-03-26T16:47:26.258Z,5.53
2023-03-26T16:48:36.061Z,7.32
2023-03-26T16:50:07.547Z,7.45
2023-03-26T16:51:21.916Z,9.38
2023-03-26T16:52:36.595Z,12.68
2023-03-26T16:53:46.681Z,14.50
2023-03-26T16:54:52.666Z,13.55
2023-03-26T16:56:02.842Z,14.45
2023-03-26T16:57:18.406Z,15.02
2023-03-26T16:58:30.964Z,11.90
2023-03-26T17:00:24.408Z,11.23
2023-03-26T17:01:41.556Z,14.40
2023-03-26T17:03:00.005Z,12.50
2023-03-26T17:04:07.223Z,14.48
2023-03-26T17:05:21.247Z,11.30
2023-03-26T17:07:14.062Z,13.23
2023-03-26T17:08:35.661Z,15.85
2023-03-26T17:09:52.023Z,16.67
2023-03-26T17:11:03.576Z,14.90
2023-03-26T17:12:14.862Z,24.15
2023-03-26T17:14:35.643Z,13.98
2023-03-26T17:15:48.229Z,16.33
2023-03-26T17:17:16.887Z,17.38
2023-03-26T17:18:37.515Z,9.52
2023-03-26T17:19:48.126Z,6.20
2023-03-26T17:20:59.686Z,4.22
2023-03-26T17:22:06.251Z,4.90
2023-03-26T17:23:25.746Z,4.30
2023-03-26T17:24:39.133Z,3.58
2023-03-26T17:25:53.266Z,5.25
2023-03-26T17:27:03.334Z,3.80
2023-03-26T17:28:22.410Z,3.83
2023-03-26T17:29:29.079Z,6.63
2023-03-26T17:30:51.623Z,3.92
2023-03-26T17:32:00.196Z,6.03
2023-03-26T17:33:14.162Z,10.18
2023-03-26T17:34:55.017Z,15.90
2023-03-26T17:36:28.205Z,11.43
2023-03-26T17:37:41.080Z,13.50
2023-03-26T17:39:20.588Z,6.00
2023-03-26T17:40:46.525Z,9.75
2023-03-26T17:42:03.285Z,10.00
2023-03-26T17:43:12.443Z,6.88
2023-03-26T17:44:43.147Z,8.82
2023-03-26T17:45:47.132Z,7.20
2023-03-26T17:47:13.269Z,8.60
2023-03-26T17:48:20.560Z,7.47
2023-03-26T17:49:29.391Z,6.65
2023-03-26T17:50:34.735Z,10.30
2023-03-26T17:51:46.533Z,4.85
2023-03-26T17:52:55.673Z,5.07
2023-03-26T17:53:58.511Z,10.45
2023-03-26T17:55:02.224Z,10.32
2023-03-26T17:56:07.018Z,11.15
2023-03-26T17:57:16.703Z,5.53
2023-03-26T17:58:27.108Z,11.05
2023-03-26T17:59:31.856Z,9.60
2023-03-26T18:00:40.052Z,18.83
2023-03-26T18:01:46.264Z,41.65
2023-03-26T18:02:54.177Z,68.25
2023-03-26T18:04:00.113Z,58.00
2023-03-26T18:05:06.161Z,35.05
2023-03-26T18:06:13.046Z,34.97
2023-03-26T18:07:59.834Z,21.50
2023-03-26T18:09:15.772Z,19.55
2023-03-26T18:10:33.482Z,14.63
2023-03-26T18:11:59.975Z,8.82
2023-03-26T18:13:28.954Z,15.40
2023-03-26T18:14:58.157Z,12.07
2023-03-26T18:16:12.612Z,11.88
2023-03-26T18:17:15.036Z,11.07
2023-03-26T18:18:20.622Z,7.30
2023-03-26T18:19:23.463Z,6.38
2023-03-26T18:20:28.303Z,5.60
2023-03-26T18:21:34.911Z,6.75
2023-03-26T18:22:37.187Z,6.15
2023-03-26T18:23:45.078Z,9.77
2023-03-26T18:24:48.020Z,8.52
2023-03-26T18:25:57.108Z,12.77
2023-03-26T18:27:03.141Z,21.67
2023-03-26T18:28:06.108Z,14.55
2023-03-26T18:29:20.151Z,20.00
2023-03-26T18:30:23.616Z,17.33
2023-03-26T18:31:26.892Z,19.58
2023-03-26T18:32:40.965Z,12.75
2023-03-26T18:33:44.166Z,10.93
2023-03-26T18:34:50.080Z,12.00
2023-03-26T18:35:55.633Z,14.73
2023-03-26T18:37:15.070Z,11.48
2023-03-26T18:38:35.442Z,9.70
2023-03-26T18:39:40.685Z,9.80
2023-03-26T18:40:45.613Z,9.27
2023-03-26T18:41:47.920Z,8.25
2023-03-26T18:42:52.493Z,12.93
2023-03-26T18:43:55.573Z,18.05
2023-03-26T18:45:04.652Z,23.92
2023-03-26T18:46:07.389Z,28.40
2023-03-26T18:47:12.091Z,28.58
2023-03-26T18:48:19.249Z,35.25
2023-03-26T18:49:22.237Z,36.70
2023-03-26T18:50:27.937Z,23.88
2023-03-26T18:51:31.977Z,18.65
2023-03-26T18:52:34.251Z,15.30
2023-03-26T18:53:39.359Z,19.42
2023-03-26T18:54:42.732Z,16.17
2023-03-26T18:55:44.912Z,20.15
2023-03-26T18:56:48.265Z,19.58
2023-03-26T18:57:51.691Z,14.73
2023-03-26T18:59:00.150Z,18.90
2023-03-26T19:00:18.495Z,15.68
2023-03-26T19:01:25.938Z,19.92
2023-03-26T19:02:29.308Z,24.10
2023-03-26T19:03:35.631Z,21.73
2023-03-26T19:04:38.187Z,23.67
2023-03-26T19:05:41.563Z,21.92
2023-03-26T19:06:45.083Z,20.77
2023-03-26T19:07:47.875Z,20.13
2023-03-26T19:08:50.875Z,19.65
2023-03-26T19:09:56.300Z,19.50
2023-03-26T19:11:02.198Z,21.77
2023-03-26T19:12:09.269Z,21.95
2023-03-26T19:13:14.566Z,22.40
2023-03-26T19:14:19.227Z,23.38
2023-03-26T19:15:25.037Z,23.63
2023-03-26T19:16:34.017Z,23.00
2023-03-26T19:17:41.054Z,24.20
2023-03-26T19:18:44.216Z,25.45
2023-03-26T19:19:46.824Z,24.58
2023-03-26T19:20:51.488Z,22.10
2023-03-26T19:21:59.086Z,27.20
2023-03-26T19:23:01.969Z,22.80
2023-03-26T19:24:05.504Z,21.10
2023-03-26T19:25:20.417Z,24.17
2023-03-26T19:26:22.629Z,23.80
2023-03-26T19:27:26.619Z,23.58
2023-03-26T19:28:32.814Z,19.63
2023-03-26T19:29:36.268Z,19.73
2023-03-26T19:30:44.034Z,22.95
2023-03-26T19:31:51.332Z,23.60
2023-03-26T19:32:54.089Z,25.33
2023-03-26T19:33:58.752Z,20.13
2023-03-26T19:35:02.288Z,22.75
2023-03-26T19:36:15.022Z,22.58
2023-03-26T19:37:20.724Z,20.30
2023-03-26T19:38:25.653Z,25.00
2023-03-26T19:39:39.119Z,25.25
2023-03-26T19:40:43.307Z,33.58
2023-03-26T19:41:51.274Z,31.17
2023-03-26T19:42:53.405Z,29.67
2023-03-26T19:43:58.258Z,29.80
2023-03-26T19:45:02.249Z,29.13
2023-03-26T19:46:05.988Z,41.53
2023-03-26T19:47:15.981Z,37.53
2023-03-26T19:48:20.462Z,39.63
2023-03-26T19:49:49.977Z,39.78
2023-03-26T19:51:00.543Z,45.17
2023-03-26T19:52:12.575Z,55.15
2023-03-26T19:53:22.498Z,53.75
2023-03-26T19:54:25.218Z,60.33
2023-03-26T19:55:29.266Z,66.10
2023-03-26T19:56:31.876Z,60.72
2023-03-26T19:57:37.844Z,47.35
2023-03-26T19:58:41.290Z,45.28
2023-03-26T19:59:43.468Z,50.60
2023-03-26T20:00:53.799Z,57.38
2023-03-26T20:01:57.597Z,47.50
2023-03-26T20:02:59.930Z,56.22
2023-03-26T20:04:04.800Z,50.92
2023-03-26T20:05:15.371Z,47.00
2023-03-26T20:06:20.014Z,50.95
2023-03-26T20:07:35.307Z,58.28
2023-03-26T20:08:40.588Z,58.33
2023-03-26T20:09:44.104Z,98.03
2023-03-26T20:10:46.261Z,88.75
2023-03-26T20:11:48.425Z,88.32
2023-03-26T20:12:50.695Z,83.65
2023-03-26T20:13:52.880Z,89.88
2023-03-26T20:15:00.835Z,85.75
2023-03-26T20:16:10.583Z,73.55
2023-03-26T20:17:16.510Z,78.53
2023-03-26T20:18:19.025Z,84.55
2023-03-26T20:19:21.248Z,79.63
2023-03-26T20:20:27.560Z,75.38
2023-03-26T20:21:32.300Z,71.50
2023-03-26T20:22:34.420Z,56.28
2023-03-26T20:23:39.104Z,62.70
2023-03-26T20:24:41.574Z,65.18
2023-03-26T20:25:50.156Z,66.28
2023-03-26T20:26:52.423Z,74.57
2023-03-26T20:27:55.408Z,58.97
2023-03-26T20:28:58.333Z,56.50
2023-03-26T20:30:00.495Z,53.20
2023-03-26T20:31:02.908Z,47.08
2023-03-26T20:32:09.577Z,47.55
2023-03-26T20:33:17.931Z,45.00
2023-03-26T20:34:22.046Z,46.58
2023-03-26T20:35:37.698Z,46.67
2023-03-26T20:36:40.148Z,45.40
2023-03-26T20:37:42.419Z,44.35
2023-03-26T20:38:45.958Z,44.80
2023-03-26T20:39:48.101Z,42.58
2023-03-26T20:40:50.261Z,48.10